createdAt,value
2023-01-29T00:00:34.555Z,101980.22
2023-01-29T00:03:01.560Z,101981.97
2023-01-29T00:05:28.798Z,101989.69
2023-01-29T00:07:56.673Z,101982.88
2023-01-29T00:10:25.301Z,101983.69
2023-01-29T00:12:52.964Z,101977.69
2023-01-29T00:15:20.667Z,101980.28
2023-01-29T00:17:47.545Z,101973.47
2023-01-29T00:20:14.818Z,101966.59
2023-01-29T00:22:41.791Z,101964.94
2023-01-29T00:25:09.544Z,101971.81
2023-01-29T00:27:36.349Z,101972.72
2023-01-29T00:30:11.980Z,101976.19
2023-01-29T00:32:42.097Z,101977.03
2023-01-29T00:35:09.738Z,101974.47
2023-01-29T00:37:36.609Z,101982.19
2023-01-29T00:40:05.160Z,101977.03
2023-01-29T00:42:50.295Z,101984.75
2023-01-29T00:45:17.282Z,101982.22
2023-01-29T00:47:44.139Z,101977.06
2023-01-29T00:50:12.995Z,101978.78
2023-01-29T00:52:43.770Z,101985.72
2023-01-29T00:55:11.611Z,101988.28
2023-01-29T00:57:39.089Z,101997.66
2023-01-29T01:00:10.835Z,101998.56
2023-01-29T01:02:56.399Z,101999.38
2023-01-29T01:05:24.180Z,101999.31
2023-01-29T01:07:54.245Z,101994.16
2023-01-29T01:10:33.064Z,101999.31
2023-01-29T01:13:04.633Z,102003.63
2023-01-29T01:15:37.687Z,101995.06
2023-01-29T01:18:05.175Z,101994.22
2023-01-29T01:20:34.822Z,101998.53
2023-01-29T01:23:01.648Z,101994.22
2023-01-29T01:25:28.668Z,101983.06
2023-01-29T01:27:57.556Z,101985.63
2023-01-29T01:30:25.684Z,101989.91
2023-01-29T01:32:52.897Z,101994.16
2023-01-29T01:35:19.814Z,101976.13
2023-01-29T01:37:46.762Z,101984.69
2023-01-29T01:40:18.353Z,101979.53
2023-01-29T01:42:50.074Z,101974.34
2023-01-29T01:45:37.194Z,101985.59
2023-01-29T01:48:25.181Z,101983.00
2023-01-29T01:51:04.675Z,101982.13
2023-01-29T01:53:43.682Z,101983.88
2023-01-29T01:56:16.901Z,101976.97
2023-01-29T01:58:50.990Z,101967.50
2023-01-29T02:01:21.222Z,101975.22
2023-01-29T02:04:14.185Z,101970.88
2023-01-29T02:06:59.900Z,101967.53
2023-01-29T02:09:37.021Z,101964.16
2023-01-29T02:12:13.003Z,101958.13
2023-01-29T02:14:41.911Z,101963.28
2023-01-29T02:17:13.262Z,101959.00
2023-01-29T02:20:20.709Z,101959.94
2023-01-29T02:23:33.147Z,101952.25
2023-01-29T02:26:34.913Z,101948.81
2023-01-29T02:29:30.495Z,101955.72
2023-01-29T02:32:08.761Z,101937.72
2023-01-29T02:35:25.213Z,101936.06
2023-01-29T02:38:01.710Z,101943.81
2023-01-29T02:40:46.878Z,101943.00
2023-01-29T02:43:47.828Z,101937.88
2023-01-29T02:47:14.810Z,101937.19
2023-01-29T02:50:07.101Z,101933.97
2023-01-29T02:52:44.472Z,101937.53
